sensor_id;sensor_type;location;lat;lon;timestamp;temperature;humidity
46552;DHT22;32278;51.810;4.712;2022-08-01T00:00:34;21.10;99.90
46552;DHT22;32278;51.810;4.712;2022-08-01T00:03:00;21.10;99.90
46552;DHT22;32278;51.810;4.712;2022-08-01T00:05:25;21.10;99.90
46552;DHT22;32278;51.810;4.712;2022-08-01T00:07:51;21.00;99.90
46552;DHT22;32278;51.810;4.712;2022-08-01T00:10:17;21.20;99.90
46552;DHT22;32278;51.810;4.712;2022-08-01T00:12:43;21.10;99.90
46552;DHT22;32278;51.810;4.712;2022-08-01T00:15:11;21.10;99.90
46552;DHT22;32278;51.810;4.712;2022-08-01T00:17:37;21.10;99.90
46552;DHT22;32278;51.810;4.712;2022-08-01T00:20:04;21.00;99.90
46552;DHT22;32278;51.810;4.712;2022-08-01T00:22:31;20.90;99.90
46552;DHT22;32278;51.810;4.712;2022-08-01T00:24:56;20.90;99.90
46552;DHT22;32278;51.810;4.712;2022-08-01T00:27:22;20.90;99.90
46552;DHT22;32278;51.810;4.712;2022-08-01T00:29:47;21.00;99.90
46552;DHT22;32278;51.810;4.712;2022-08-01T00:32:13;20.90;99.90
46552;DHT22;32278;51.810;4.712;2022-08-01T00:34:39;21.00;99.90
46552;DHT22;32278;51.810;4.712;2022-08-01T00:37:04;20.90;99.90
46552;DHT22;32278;51.810;4.712;2022-08-01T00:39:30;20.80;99.90
46552;DHT22;32278;51.810;4.712;2022-08-01T00:41:57;20.70;99.90
46552;DHT22;32278;51.810;4.712;2022-08-01T00:44:23;20.80;99.90
46552;DHT22;32278;51.810;4.712;2022-08-01T00:46:49;20.80;99.90
46552;DHT22;32278;51.810;4.712;2022-08-01T00:49:14;20.70;99.90
46552;DHT22;32278;51.810;4.712;2022-08-01T00:51:40;20.60;99.90
46552;DHT22;32278;51.810;4.712;2022-08-01T00:54:06;20.70;99.90
46552;DHT22;32278;51.810;4.712;2022-08-01T00:56:31;20.60;99.90
46552;DHT22;32278;51.810;4.712;2022-08-01T00:58:58;20.70;99.90
46552;DHT22;32278;51.810;4.712;2022-08-01T01:01:24;20.60;99.90
46552;DHT22;32278;51.810;4.712;2022-08-01T01:03:51;20.60;99.90
46552;DHT22;32278;51.810;4.712;2022-08-01T01:07:02;20.70;99.90
46552;DHT22;32278;51.810;4.712;2022-08-01T01:09:52;20.70;99.90
46552;DHT22;32278;51.810;4.712;2022-08-01T01:12:56;20.60;99.90
46552;DHT22;32278;51.810;4.712;2022-08-01T01:15:47;20.60;99.90
46552;DHT22;32278;51.810;4.712;2022-08-01T01:18:22;20.70;99.90
46552;DHT22;32278;51.810;4.712;2022-08-01T01:21:11;20.60;99.90
46552;DHT22;32278;51.810;4.712;2022-08-01T01:27:00;20.60;99.90
46552;DHT22;32278;51.810;4.712;2022-08-01T01:29:38;20.70;99.90
46552;DHT22;32278;51.810;4.712;2022-08-01T01:32:09;20.70;99.90
46552;DHT22;32278;51.810;4.712;2022-08-01T01:34:40;20.70;99.90
46552;DHT22;32278;51.810;4.712;2022-08-01T01:37:11;20.60;99.90
46552;DHT22;32278;51.810;4.712;2022-08-01T01:39:38;20.60;99.90
46552;DHT22;32278;51.810;4.712;2022-08-01T01:42:06;20.60;99.90
46552;DHT22;32278;51.810;4.712;2022-08-01T01:44:34;20.70;99.90
46552;DHT22;32278;51.810;4.712;2022-08-01T01:47:02;20.80;99.90
46552;DHT22;32278;51.810;4.712;2022-08-01T01:49:28;20.80;99.90
46552;DHT22;32278;51.810;4.712;2022-08-01T01:51:57;20.80;99.90
46552;DHT22;32278;51.810;4.712;2022-08-01T01:54:25;20.80;99.90
46552;DHT22;32278;51.810;4.712;2022-08-01T01:56:56;20.80;99.90
46552;DHT22;32278;51.810;4.712;2022-08-01T01:59:26;20.80;99.90
46552;DHT22;32278;51.810;4.712;2022-08-01T02:01:55;20.80;99.90
46552;DHT22;32278;51.810;4.712;2022-08-01T02:04:23;20.80;99.90
46552;DHT22;32278;51.810;4.712;2022-08-01T02:06:50;20.70;99.90
46552;DHT22;32278;51.810;4.712;2022-08-01T02:09:19;20.70;99.90
46552;DHT22;32278;51.810;4.712;2022-08-01T02:11:47;20.60;99.90
46552;DHT22;32278;51.810;4.712;2022-08-01T02:14:14;20.50;99.90
46552;DHT22;32278;51.810;4.712;2022-08-01T02:16:42;20.50;99.90
46552;DHT22;32278;51.810;4.712;2022-08-01T02:19:09;20.50;99.90
46552;DHT22;32278;51.810;4.712;2022-08-01T02:21:51;20.50;99.90
46552;DHT22;32278;51.810;4.712;2022-08-01T02:24:20;20.60;99.90
46552;DHT22;32278;51.810;4.712;2022-08-01T02:26:51;20.60;99.90
46552;DHT22;32278;51.810;4.712;2022-08-01T02:32:55;20.70;99.90
46552;DHT22;32278;51.810;4.712;2022-08-01T02:35:27;20.60;99.90
46552;DHT22;32278;51.810;4.712;2022-08-01T02:37:56;20.60;99.90
46552;DHT22;32278;51.810;4.712;2022-08-01T02:40:22;20.50;99.90
46552;DHT22;32278;51.810;4.712;2022-08-01T02:42:50;20.50;99.90
46552;DHT22;32278;51.810;4.712;2022-08-01T02:45:19;20.40;99.90
46552;DHT22;32278;51.810;4.712;2022-08-01T02:47:46;20.50;99.90
46552;DHT22;32278;51.810;4.712;2022-08-01T02:50:14;20.50;99.90
46552;DHT22;32278;51.810;4.712;2022-08-01T02:52:43;20.60;99.90
46552;DHT22;32278;51.810;4.712;2022-08-01T02:55:10;20.50;99.90
46552;DHT22;32278;51.810;4.712;2022-08-01T02:57:37;20.50;99.90
46552;DHT22;32278;51.810;4.712;2022-08-01T03:00:04;20.60;99.90
46552;DHT22;32278;51.810;4.712;2022-08-01T03:02:32;20.60;99.90
46552;DHT22;32278;51.810;4.712;2022-08-01T03:05:00;20.70;99.90
46552;DHT22;32278;51.810;4.712;2022-08-01T03:07:28;20.60;99.90
46552;DHT22;32278;51.810;4.712;2022-08-01T03:09:55;20.60;99.90
46552;DHT22;32278;51.810;4.712;2022-08-01T03:12:25;20.70;99.90
46552;DHT22;32278;51.810;4.712;2022-08-01T03:14:51;20.80;99.90
46552;DHT22;32278;51.810;4.712;2022-08-01T03:17:20;20.80;99.90
46552;DHT22;32278;51.810;4.712;2022-08-01T03:19:48;20.80;99.90
46552;DHT22;32278;51.810;4.712;2022-08-01T03:22:16;20.80;99.90
46552;DHT22;32278;51.810;4.712;2022-08-01T03:24:44;20.90;99.90
46552;DHT22;32278;51.810;4.712;2022-08-01T03:27:11;20.90;99.90
46552;DHT22;32278;51.810;4.712;2022-08-01T03:29:39;21.00;99.90
46552;DHT22;32278;51.810;4.712;2022-08-01T03:32:06;21.00;99.90
46552;DHT22;32278;51.810;4.712;2022-08-01T03:34:32;21.10;99.90
46552;DHT22;32278;51.810;4.712;2022-08-01T03:39:52;21.00;99.90
46552;DHT22;32278;51.810;4.712;2022-08-01T03:42:23;21.10;99.90
46552;DHT22;32278;51.810;4.712;2022-08-01T03:44:54;21.10;99.90
46552;DHT22;32278;51.810;4.712;2022-08-01T03:47:22;21.00;99.90
46552;DHT22;32278;51.810;4.712;2022-08-01T03:49:51;21.00;99.90
46552;DHT22;32278;51.810;4.712;2022-08-01T03:52:18;21.00;99.90
46552;DHT22;32278;51.810;4.712;2022-08-01T03:54:47;20.90;99.90
46552;DHT22;32278;51.810;4.712;2022-08-01T03:57:13;21.00;99.90
46552;DHT22;32278;51.810;4.712;2022-08-01T03:59:39;21.00;99.90
46552;DHT22;32278;51.810;4.712;2022-08-01T04:02:06;21.10;99.90
46552;DHT22;32278;51.810;4.712;2022-08-01T04:04:32;21.20;99.90
46552;DHT22;32278;51.810;4.712;2022-08-01T04:06:58;21.20;99.90
46552;DHT22;32278;51.810;4.712;2022-08-01T04:09:30;21.00;99.90
46552;DHT22;32278;51.810;4.712;2022-08-01T04:11:55;20.80;99.90
46552;DHT22;32278;51.810;4.712;2022-08-01T04:14:21;20.90;99.90
46552;DHT22;32278;51.810;4.712;2022-08-01T04:16:47;20.90;99.90
46552;DHT22;32278;51.810;4.712;2022-08-01T04:19:12;20.90;99.90
46552;DHT22;32278;51.810;4.712;2022-08-01T04:21:38;21.00;99.90
46552;DHT22;32278;51.810;4.712;2022-08-01T04:24:07;21.10;99.90
46552;DHT22;32278;51.810;4.712;2022-08-01T04:26:35;21.00;99.90
46552;DHT22;32278;51.810;4.712;2022-08-01T04:29:04;21.00;99.90
46552;DHT22;32278;51.810;4.712;2022-08-01T04:31:31;21.00;99.90
46552;DHT22;32278;51.810;4.712;2022-08-01T04:33:57;20.90;99.90
46552;DHT22;32278;51.810;4.712;2022-08-01T04:36:25;20.90;99.90
46552;DHT22;32278;51.810;4.712;2022-08-01T04:38:55;20.90;99.90
46552;DHT22;32278;51.810;4.712;2022-08-01T04:41:23;20.90;99.90
46552;DHT22;32278;51.810;4.712;2022-08-01T04:43:50;20.90;99.90
46552;DHT22;32278;51.810;4.712;2022-08-01T04:46:17;20.90;99.90
46552;DHT22;32278;51.810;4.712;2022-08-01T04:48:44;20.90;99.90
46552;DHT22;32278;51.810;4.712;2022-08-01T04:51:15;20.70;99.90
46552;DHT22;32278;51.810;4.712;2022-08-01T04:53:42;20.60;99.90
46552;DHT22;32278;51.810;4.712;2022-08-01T04:56:07;20.70;99.90
46552;DHT22;32278;51.810;4.712;2022-08-01T04:58:33;20.60;99.90
46552;DHT22;32278;51.810;4.712;2022-08-01T05:00:59;20.60;99.90
46552;DHT22;32278;51.810;4.712;2022-08-01T05:03:24;20.50;99.90
46552;DHT22;32278;51.810;4.712;2022-08-01T05:05:50;20.60;99.90
46552;DHT22;32278;51.810;4.712;2022-08-01T05:08:15;20.50;99.90
46552;DHT22;32278;51.810;4.712;2022-08-01T05:10:42;20.50;99.90
46552;DHT22;32278;51.810;4.712;2022-08-01T05:13:08;20.70;99.90
46552;DHT22;32278;51.810;4.712;2022-08-01T05:15:36;20.70;99.90
46552;DHT22;32278;51.810;4.712;2022-08-01T05:18:02;20.50;99.90
46552;DHT22;32278;51.810;4.712;2022-08-01T05:20:28;20.40;99.90
46552;DHT22;32278;51.810;4.712;2022-08-01T05:22:53;20.30;99.90
46552;DHT22;32278;51.810;4.712;2022-08-01T05:25:19;20.30;99.90
46552;DHT22;32278;51.810;4.712;2022-08-01T05:27:45;20.40;99.90
46552;DHT22;32278;51.810;4.712;2022-08-01T05:30:10;20.40;99.90
46552;DHT22;32278;51.810;4.712;2022-08-01T05:32:36;20.30;99.90
46552;DHT22;32278;51.810;4.712;2022-08-01T05:35:02;20.20;99.90
46552;DHT22;32278;51.810;4.712;2022-08-01T05:37:28;20.20;99.90
46552;DHT22;32278;51.810;4.712;2022-08-01T05:39:53;20.30;99.90
46552;DHT22;32278;51.810;4.712;2022-08-01T05:42:19;20.50;99.90
46552;DHT22;32278;51.810;4.712;2022-08-01T05:44:45;20.70;99.90
46552;DHT22;32278;51.810;4.712;2022-08-01T05:47:10;20.70;99.90
46552;DHT22;32278;51.810;4.712;2022-08-01T05:49:36;20.70;99.90
46552;DHT22;32278;51.810;4.712;2022-08-01T05:52:01;20.60;99.90
46552;DHT22;32278;51.810;4.712;2022-08-01T05:54:27;20.50;99.90
46552;DHT22;32278;51.810;4.712;2022-08-01T05:56:53;20.40;99.90
46552;DHT22;32278;51.810;4.712;2022-08-01T05:59:20;20.40;99.90
46552;DHT22;32278;51.810;4.712;2022-08-01T06:01:45;20.50;99.90
46552;DHT22;32278;51.810;4.712;2022-08-01T06:04:11;20.40;99.90
46552;DHT22;32278;51.810;4.712;2022-08-01T06:06:37;20.40;99.90
46552;DHT22;32278;51.810;4.712;2022-08-01T06:09:03;20.50;99.90
46552;DHT22;32278;51.810;4.712;2022-08-01T06:11:28;20.40;99.90
46552;DHT22;32278;51.810;4.712;2022-08-01T06:13:54;20.40;99.90
46552;DHT22;32278;51.810;4.712;2022-08-01T06:16:19;20.50;99.90
46552;DHT22;32278;51.810;4.712;2022-08-01T06:18:45;20.50;99.90
46552;DHT22;32278;51.810;4.712;2022-08-01T06:21:11;20.40;99.90
46552;DHT22;32278;51.810;4.712;2022-08-01T06:23:36;20.50;99.90
46552;DHT22;32278;51.810;4.712;2022-08-01T06:26:02;20.40;99.90
46552;DHT22;32278;51.810;4.712;2022-08-01T06:28:28;20.40;99.90
46552;DHT22;32278;51.810;4.712;2022-08-01T06:30:54;20.40;99.90
46552;DHT22;32278;51.810;4.712;2022-08-01T06:33:20;20.50;99.90
46552;DHT22;32278;51.810;4.712;2022-08-01T06:35:46;20.60;99.90
46552;DHT22;32278;51.810;4.712;2022-08-01T06:38:11;20.70;99.90
46552;DHT22;32278;51.810;4.712;2022-08-01T06:40:37;20.90;99.90
46552;DHT22;32278;51.810;4.712;2022-08-01T06:43:05;20.80;99.90
46552;DHT22;32278;51.810;4.712;2022-08-01T06:45:30;20.80;99.90
46552;DHT22;32278;51.810;4.712;2022-08-01T06:47:56;20.90;99.90
46552;DHT22;32278;51.810;4.712;2022-08-01T06:50:21;20.90;99.90
46552;DHT22;32278;51.810;4.712;2022-08-01T06:52:47;20.80;99.90
46552;DHT22;32278;51.810;4.712;2022-08-01T06:55:13;20.80;99.90
46552;DHT22;32278;51.810;4.712;2022-08-01T06:57:46;20.80;99.90
46552;DHT22;32278;51.810;4.712;2022-08-01T07:00:12;20.80;99.90
46552;DHT22;32278;51.810;4.712;2022-08-01T07:02:39;20.80;99.90
46552;DHT22;32278;51.810;4.712;2022-08-01T07:05:04;21.00;99.90
46552;DHT22;32278;51.810;4.712;2022-08-01T07:07:31;21.20;99.90
46552;DHT22;32278;51.810;4.712;2022-08-01T07:09:56;21.30;99.90
46552;DHT22;32278;51.810;4.712;2022-08-01T07:12:22;21.40;99.90
46552;DHT22;32278;51.810;4.712;2022-08-01T07:14:48;21.50;99.90
46552;DHT22;32278;51.810;4.712;2022-08-01T07:17:13;21.30;99.90
46552;DHT22;32278;51.810;4.712;2022-08-01T07:19:39;21.00;99.90
46552;DHT22;32278;51.810;4.712;2022-08-01T07:22:05;20.90;99.90
46552;DHT22;32278;51.810;4.712;2022-08-01T07:24:31;20.90;99.90
46552;DHT22;32278;51.810;4.712;2022-08-01T07:26:56;20.80;99.90
46552;DHT22;32278;51.810;4.712;2022-08-01T07:29:26;20.70;99.90
46552;DHT22;32278;51.810;4.712;2022-08-01T07:31:53;20.50;99.90
46552;DHT22;32278;51.810;4.712;2022-08-01T07:34:19;20.70;99.90
46552;DHT22;32278;51.810;4.712;2022-08-01T07:36:45;20.70;99.90
46552;DHT22;32278;51.810;4.712;2022-08-01T07:39:10;20.80;99.90
46552;DHT22;32278;51.810;4.712;2022-08-01T07:41:36;20.80;99.90
46552;DHT22;32278;51.810;4.712;2022-08-01T07:44:03;20.90;99.90
46552;DHT22;32278;51.810;4.712;2022-08-01T07:46:28;21.10;99.90
46552;DHT22;32278;51.810;4.712;2022-08-01T07:48:55;20.90;99.90
46552;DHT22;32278;51.810;4.712;2022-08-01T07:51:21;20.80;99.90
46552;DHT22;32278;51.810;4.712;2022-08-01T07:53:46;20.80;99.90
46552;DHT22;32278;51.810;4.712;2022-08-01T07:56:12;21.00;99.90
46552;DHT22;32278;51.810;4.712;2022-08-01T07:58:37;21.00;99.90
46552;DHT22;32278;51.810;4.712;2022-08-01T08:01:03;21.00;99.90
46552;DHT22;32278;51.810;4.712;2022-08-01T08:03:28;21.30;99.90
46552;DHT22;32278;51.810;4.712;2022-08-01T08:05:54;21.50;99.90
46552;DHT22;32278;51.810;4.712;2022-08-01T08:08:20;21.40;99.90
46552;DHT22;32278;51.810;4.712;2022-08-01T08:10:45;21.30;99.90
46552;DHT22;32278;51.810;4.712;2022-08-01T08:13:11;21.00;99.90
46552;DHT22;32278;51.810;4.712;2022-08-01T08:15:36;20.80;99.90
46552;DHT22;32278;51.810;4.712;2022-08-01T08:18:05;20.60;99.90
46552;DHT22;32278;51.810;4.712;2022-08-01T08:20:31;20.70;99.90
46552;DHT22;32278;51.810;4.712;2022-08-01T08:22:57;20.70;99.90
46552;DHT22;32278;51.810;4.712;2022-08-01T08:25:25;20.70;99.90
46552;DHT22;32278;51.810;4.712;2022-08-01T08:27:51;20.80;99.90
46552;DHT22;32278;51.810;4.712;2022-08-01T08:30:17;21.10;99.90
46552;DHT22;32278;51.810;4.712;2022-08-01T08:32:43;21.10;99.90
46552;DHT22;32278;51.810;4.712;2022-08-01T08:35:09;21.10;99.90
46552;DHT22;32278;51.810;4.712;2022-08-01T08:37:36;21.50;99.90
46552;DHT22;32278;51.810;4.712;2022-08-01T08:40:03;21.50;99.90
46552;DHT22;32278;51.810;4.712;2022-08-01T08:42:29;21.30;99.90
46552;DHT22;32278;51.810;4.712;2022-08-01T08:44:54;21.10;99.90
46552;DHT22;32278;51.810;4.712;2022-08-01T08:47:22;21.20;99.90
46552;DHT22;32278;51.810;4.712;2022-08-01T08:49:51;21.40;99.90
46552;DHT22;32278;51.810;4.712;2022-08-01T08:52:21;21.40;99.90
46552;DHT22;32278;51.810;4.712;2022-08-01T08:54:48;21.90;99.90
46552;DHT22;32278;51.810;4.712;2022-08-01T08:57:15;21.90;99.90
46552;DHT22;32278;51.810;4.712;2022-08-01T08:59:43;22.00;99.90
46552;DHT22;32278;51.810;4.712;2022-08-01T09:02:09;21.80;99.90
46552;DHT22;32278;51.810;4.712;2022-08-01T09:04:36;21.90;99.90
46552;DHT22;32278;51.810;4.712;2022-08-01T09:07:04;22.30;99.90
46552;DHT22;32278;51.810;4.712;2022-08-01T09:09:30;22.30;99.90
46552;DHT22;32278;51.810;4.712;2022-08-01T09:11:56;22.40;99.90
46552;DHT22;32278;51.810;4.712;2022-08-01T09:14:22;22.70;99.90
46552;DHT22;32278;51.810;4.712;2022-08-01T09:17:04;22.20;99.90
46552;DHT22;32278;51.810;4.712;2022-08-01T09:19:40;22.70;99.90
46552;DHT22;32278;51.810;4.712;2022-08-01T09:22:09;22.70;99.90
46552;DHT22;32278;51.810;4.712;2022-08-01T09:24:35;23.30;99.90
46552;DHT22;32278;51.810;4.712;2022-08-01T09:27:14;23.00;99.90
46552;DHT22;32278;51.810;4.712;2022-08-01T09:29:41;23.30;99.90
46552;DHT22;32278;51.810;4.712;2022-08-01T09:32:06;23.10;99.90
46552;DHT22;32278;51.810;4.712;2022-08-01T09:34:32;22.90;99.90
46552;DHT22;32278;51.810;4.712;2022-08-01T09:37:00;23.00;99.90
46552;DHT22;32278;51.810;4.712;2022-08-01T09:39:44;23.20;99.90
46552;DHT22;32278;51.810;4.712;2022-08-01T09:42:27;22.30;99.90
46552;DHT22;32278;51.810;4.712;2022-08-01T09:44:53;22.10;99.90
46552;DHT22;32278;51.810;4.712;2022-08-01T09:47:19;22.00;99.90
46552;DHT22;32278;51.810;4.712;2022-08-01T09:49:56;21.90;99.90
46552;DHT22;32278;51.810;4.712;2022-08-01T09:52:23;21.00;99.90
46552;DHT22;32278;51.810;4.712;2022-08-01T09:54:57;21.10;99.90
46552;DHT22;32278;51.810;4.712;2022-08-01T09:57:24;20.90;99.90
46552;DHT22;32278;51.810;4.712;2022-08-01T09:59:52;20.90;99.90
46552;DHT22;32278;51.810;4.712;2022-08-01T10:02:38;21.20;99.90
46552;DHT22;32278;51.810;4.712;2022-08-01T10:05:07;21.60;99.90
46552;DHT22;32278;51.810;4.712;2022-08-01T10:07:34;21.50;99.90
46552;DHT22;32278;51.810;4.712;2022-08-01T10:10:13;21.60;99.90
46552;DHT22;32278;51.810;4.712;2022-08-01T10:12:40;21.10;99.90
46552;DHT22;32278;51.810;4.712;2022-08-01T10:15:08;21.10;99.90
46552;DHT22;32278;51.810;4.712;2022-08-01T10:17:34;21.40;99.90
46552;DHT22;32278;51.810;4.712;2022-08-01T10:20:04;21.20;99.90
46552;DHT22;32278;51.810;4.712;2022-08-01T10:22:31;21.30;99.90
46552;DHT22;32278;51.810;4.712;2022-08-01T10:24:57;21.50;99.90
46552;DHT22;32278;51.810;4.712;2022-08-01T10:27:29;21.50;99.90
46552;DHT22;32278;51.810;4.712;2022-08-01T10:30:00;21.10;99.90
46552;DHT22;32278;51.810;4.712;2022-08-01T10:32:30;20.90;99.90
46552;DHT22;32278;51.810;4.712;2022-08-01T10:34:56;21.10;99.90
46552;DHT22;32278;51.810;4.712;2022-08-01T10:37:22;21.00;99.90
46552;DHT22;32278;51.810;4.712;2022-08-01T10:39:50;21.20;99.90
46552;DHT22;32278;51.810;4.712;2022-08-01T10:42:17;21.40;99.90
46552;DHT22;32278;51.810;4.712;2022-08-01T10:44:43;21.50;99.90
46552;DHT22;32278;51.810;4.712;2022-08-01T10:47:15;21.20;99.90
46552;DHT22;32278;51.810;4.712;2022-08-01T10:50:02;21.40;99.90
46552;DHT22;32278;51.810;4.712;2022-08-01T10:52:29;21.50;99.90
46552;DHT22;32278;51.810;4.712;2022-08-01T10:55:03;21.90;99.90
46552;DHT22;32278;51.810;4.712;2022-08-01T10:57:47;22.30;99.90
46552;DHT22;32278;51.810;4.712;2022-08-01T11:00:22;22.50;99.90
46552;DHT22;32278;51.810;4.712;2022-08-01T11:02:59;22.70;99.90
46552;DHT22;32278;51.810;4.712;2022-08-01T11:05:27;23.00;99.90
46552;DHT22;32278;51.810;4.712;2022-08-01T11:07:54;22.70;99.90
46552;DHT22;32278;51.810;4.712;2022-08-01T11:10:37;22.10;99.90
46552;DHT22;32278;51.810;4.712;2022-08-01T11:13:02;21.70;99.90
46552;DHT22;32278;51.810;4.712;2022-08-01T11:15:31;21.90;99.90
46552;DHT22;32278;51.810;4.712;2022-08-01T11:17:58;21.70;99.90
46552;DHT22;32278;51.810;4.712;2022-08-01T11:20:32;21.50;99.90
46552;DHT22;32278;51.810;4.712;2022-08-01T11:30:50;22.60;99.90
46552;DHT22;32278;51.810;4.712;2022-08-01T11:33:18;22.70;99.90
46552;DHT22;32278;51.810;4.712;2022-08-01T11:38:35;23.20;99.90
46552;DHT22;32278;51.810;4.712;2022-08-01T11:41:15;23.70;99.90
46552;DHT22;32278;51.810;4.712;2022-08-01T11:44:01;23.00;99.90
46552;DHT22;32278;51.810;4.712;2022-08-01T11:46:56;23.20;99.90
46552;DHT22;32278;51.810;4.712;2022-08-01T11:54:53;23.40;99.90
46552;DHT22;32278;51.810;4.712;2022-08-01T11:57:28;23.50;99.90
46552;DHT22;32278;51.810;4.712;2022-08-01T11:59:59;23.30;99.90
46552;DHT22;32278;51.810;4.712;2022-08-01T12:02:30;23.40;99.90
46552;DHT22;32278;51.810;4.712;2022-08-01T12:04:58;23.60;99.90
46552;DHT22;32278;51.810;4.712;2022-08-01T12:07:26;23.20;99.90
46552;DHT22;32278;51.810;4.712;2022-08-01T12:10:00;23.30;99.90
46552;DHT22;32278;51.810;4.712;2022-08-01T12:12:27;24.00;99.90
46552;DHT22;32278;51.810;4.712;2022-08-01T12:15:00;24.20;99.90
46552;DHT22;32278;51.810;4.712;2022-08-01T12:17:36;23.80;99.90
46552;DHT22;32278;51.810;4.712;2022-08-01T12:20:05;23.20;99.90
46552;DHT22;32278;51.810;4.712;2022-08-01T12:22:30;23.40;99.90
46552;DHT22;32278;51.810;4.712;2022-08-01T12:25:08;23.80;99.90
46552;DHT22;32278;51.810;4.712;2022-08-01T12:27:34;24.00;99.90
46552;DHT22;32278;51.810;4.712;2022-08-01T12:30:00;24.30;99.90
46552;DHT22;32278;51.810;4.712;2022-08-01T12:32:31;24.80;99.90
46552;DHT22;32278;51.810;4.712;2022-08-01T12:35:18;23.90;99.90
46552;DHT22;32278;51.810;4.712;2022-08-01T12:37:49;24.00;99.90
46552;DHT22;32278;51.810;4.712;2022-08-01T12:40:21;24.40;99.90
46552;DHT22;32278;51.810;4.712;2022-08-01T12:42:52;24.10;99.90
46552;DHT22;32278;51.810;4.712;2022-08-01T12:46:02;23.60;99.90
46552;DHT22;32278;51.810;4.712;2022-08-01T12:48:10;23.30;99.90
46552;DHT22;32278;51.810;4.712;2022-08-01T12:50:42;23.00;99.90
46552;DHT22;32278;51.810;4.712;2022-08-01T12:53:09;23.40;99.90
46552;DHT22;32278;51.810;4.712;2022-08-01T12:55:44;23.80;99.90
46552;DHT22;32278;51.810;4.712;2022-08-01T12:58:12;24.10;99.90
46552;DHT22;32278;51.810;4.712;2022-08-01T13:00:39;23.80;99.90
46552;DHT22;32278;51.810;4.712;2022-08-01T13:03:12;23.60;99.90
46552;DHT22;32278;51.810;4.712;2022-08-01T13:05:49;23.60;99.90
46552;DHT22;32278;51.810;4.712;2022-08-01T13:08:20;23.70;99.90
46552;DHT22;32278;51.810;4.712;2022-08-01T13:10:46;23.70;99.90
46552;DHT22;32278;51.810;4.712;2022-08-01T13:13:13;23.30;99.90
46552;DHT22;32278;51.810;4.712;2022-08-01T13:15:41;23.20;99.90
46552;DHT22;32278;51.810;4.712;2022-08-01T13:18:28;23.50;99.90
46552;DHT22;32278;51.810;4.712;2022-08-01T13:21:18;23.70;99.90
46552;DHT22;32278;51.810;4.712;2022-08-01T13:24:10;23.80;99.90
46552;DHT22;32278;51.810;4.712;2022-08-01T13:26:57;23.80;99.90
46552;DHT22;32278;51.810;4.712;2022-08-01T13:29:33;24.00;99.90
46552;DHT22;32278;51.810;4.712;2022-08-01T13:32:00;23.80;99.90
46552;DHT22;32278;51.810;4.712;2022-08-01T13:34:36;23.80;99.90
46552;DHT22;32278;51.810;4.712;2022-08-01T13:37:02;23.60;99.90
46552;DHT22;32278;51.810;4.712;2022-08-01T13:39:31;23.60;99.90
46552;DHT22;32278;51.810;4.712;2022-08-01T13:42:07;23.60;99.90
46552;DHT22;32278;51.810;4.712;2022-08-01T13:44:33;23.30;99.90
46552;DHT22;32278;51.810;4.712;2022-08-01T13:46:58;23.20;99.90
46552;DHT22;32278;51.810;4.712;2022-08-01T13:49:24;22.80;99.90
46552;DHT22;32278;51.810;4.712;2022-08-01T13:51:50;22.50;99.90
46552;DHT22;32278;51.810;4.712;2022-08-01T13:54:16;22.70;99.90
46552;DHT22;32278;51.810;4.712;2022-08-01T13:56:42;22.50;99.90
46552;DHT22;32278;51.810;4.712;2022-08-01T13:59:08;22.60;99.90
46552;DHT22;32278;51.810;4.712;2022-08-01T14:01:34;22.40;99.90
46552;DHT22;32278;51.810;4.712;2022-08-01T14:04:01;22.60;99.90
46552;DHT22;32278;51.810;4.712;2022-08-01T14:06:27;22.40;99.90
46552;DHT22;32278;51.810;4.712;2022-08-01T14:08:52;22.50;99.90
46552;DHT22;32278;51.810;4.712;2022-08-01T14:11:18;22.50;99.90
46552;DHT22;32278;51.810;4.712;2022-08-01T14:13:44;22.80;99.90
46552;DHT22;32278;51.810;4.712;2022-08-01T14:16:09;22.70;99.90
46552;DHT22;32278;51.810;4.712;2022-08-01T14:18:35;22.70;99.90
46552;DHT22;32278;51.810;4.712;2022-08-01T14:21:00;22.80;99.90
46552;DHT22;32278;51.810;4.712;2022-08-01T14:23:26;22.90;99.90
46552;DHT22;32278;51.810;4.712;2022-08-01T14:25:52;22.90;99.90
46552;DHT22;32278;51.810;4.712;2022-08-01T14:28:18;23.00;99.90
46552;DHT22;32278;51.810;4.712;2022-08-01T14:30:44;22.90;99.90
46552;DHT22;32278;51.810;4.712;2022-08-01T14:33:10;22.80;99.90
46552;DHT22;32278;51.810;4.712;2022-08-01T14:35:36;22.50;99.90
46552;DHT22;32278;51.810;4.712;2022-08-01T14:38:02;22.40;99.90
46552;DHT22;32278;51.810;4.712;2022-08-01T14:40:28;22.60;99.90
46552;DHT22;32278;51.810;4.712;2022-08-01T14:42:54;22.60;99.90
46552;DHT22;32278;51.810;4.712;2022-08-01T14:45:19;22.70;99.90
46552;DHT22;32278;51.810;4.712;2022-08-01T14:47:45;22.80;99.90
46552;DHT22;32278;51.810;4.712;2022-08-01T14:50:13;22.80;99.90
46552;DHT22;32278;51.810;4.712;2022-08-01T14:52:39;22.80;99.90
46552;DHT22;32278;51.810;4.712;2022-08-01T14:55:06;22.80;99.90
46552;DHT22;32278;51.810;4.712;2022-08-01T14:57:33;22.90;99.90
46552;DHT22;32278;51.810;4.712;2022-08-01T14:59:58;22.70;99.90
46552;DHT22;32278;51.810;4.712;2022-08-01T15:02:25;22.60;99.90
46552;DHT22;32278;51.810;4.712;2022-08-01T15:04:50;22.70;99.90
46552;DHT22;32278;51.810;4.712;2022-08-01T15:07:17;22.70;99.90
46552;DHT22;32278;51.810;4.712;2022-08-01T15:09:43;22.60;99.90
46552;DHT22;32278;51.810;4.712;2022-08-01T15:12:09;22.70;99.90
46552;DHT22;32278;51.810;4.712;2022-08-01T15:14:35;22.60;99.90
46552;DHT22;32278;51.810;4.712;2022-08-01T15:17:18;22.50;99.90
46552;DHT22;32278;51.810;4.712;2022-08-01T15:19:45;22.50;99.90
46552;DHT22;32278;51.810;4.712;2022-08-01T15:22:12;22.50;99.90
46552;DHT22;32278;51.810;4.712;2022-08-01T15:24:37;22.40;99.90
46552;DHT22;32278;51.810;4.712;2022-08-01T15:27:04;22.60;99.90
46552;DHT22;32278;51.810;4.712;2022-08-01T15:29:30;22.70;99.90
46552;DHT22;32278;51.810;4.712;2022-08-01T15:31:55;22.70;99.90
46552;DHT22;32278;51.810;4.712;2022-08-01T15:34:21;22.60;99.90
46552;DHT22;32278;51.810;4.712;2022-08-01T15:36:47;22.70;99.90
46552;DHT22;32278;51.810;4.712;2022-08-01T15:39:13;22.80;99.90
46552;DHT22;32278;51.810;4.712;2022-08-01T15:41:40;22.70;99.90
46552;DHT22;32278;51.810;4.712;2022-08-01T15:44:05;22.90;99.90
46552;DHT22;32278;51.810;4.712;2022-08-01T15:46:31;23.10;99.90
46552;DHT22;32278;51.810;4.712;2022-08-01T15:48:57;23.20;99.90
46552;DHT22;32278;51.810;4.712;2022-08-01T15:51:22;23.10;99.90
46552;DHT22;32278;51.810;4.712;2022-08-01T15:53:48;22.90;99.90
46552;DHT22;32278;51.810;4.712;2022-08-01T15:56:13;23.10;99.90
46552;DHT22;32278;51.810;4.712;2022-08-01T15:58:39;22.90;99.90
46552;DHT22;32278;51.810;4.712;2022-08-01T16:01:05;22.90;99.90
46552;DHT22;32278;51.810;4.712;2022-08-01T16:03:30;23.10;99.90